Time;durP1;ratioP1;P1;durP2;ratioP2;P2;SDS_P1;SDS_P2;PMS_P1;PMS_P2;Temp;Humidity;BMP_temperature;BMP_pressure;BME280_temperature;BME280_humidity;BME280_pressure;Samples;Min_cycle;Max_cycle;Signal;HPM_P1;HPM_P2
2022/09/01 00:01:54;;;;;;;;;;;;;;;7.76;87.83;98575.78;4917938;29;20405;-88
2022/09/01 00:04:25;;;;;;;;;;;;;;;7.70;87.90;98565.19;4918908;29;19959;-88
2022/09/01 00:06:53;;;;;;;;;;;;;;;7.69;88.23;98568.91;4916146;29;19934;-87
2022/09/01 00:09:21;;;;;;;;;;;;;;;7.75;88.29;98578.72;4917886;29;19937;-88
2022/09/01 00:11:49;;;;;;;;;;;;;;;7.75;88.06;98568.78;4919477;29;19930;-87
2022/09/01 00:14:20;;;;;;;;;;;;;;;7.64;88.13;98569.63;4921359;29;19935;-86
2022/09/01 00:16:58;;;;;;;;;;;;;;;7.55;88.80;98571.84;4917792;29;19935;-88
2022/09/01 00:19:25;;;;;;;;;;;;;;;7.54;89.17;98574.75;4918980;29;19946;-87
2022/09/01 00:21:54;;;;;;;;;;;;;;;7.48;89.22;98573.03;4920030;29;19938;-88
2022/09/01 00:24:21;;;;;;;;;;;;;;;7.42;89.54;98576.63;4917471;29;19977;-90
2022/09/01 00:26:48;;;;;;;;;;;;;;;7.38;89.89;98578.97;4915826;29;19931;-88
2022/09/01 00:29:16;;;;;;;;;;;;;;;7.34;90.15;98584.00;4917000;29;19935;-89
2022/09/01 00:31:43;;;;;;;;;;;;;;;7.32;90.46;98575.38;4884597;29;19935;-87
2022/09/01 00:34:10;;;;;;;;;;;;;;;7.34;90.57;98573.28;4915929;29;20393;-87
2022/09/01 00:36:38;;;;;;;;;;;;;;;7.29;90.66;98575.84;4916883;29;19931;-87
2022/09/01 00:39:05;;;;;;;;;;;;;;;7.34;90.85;98586.69;4922607;29;20290;-89
2022/09/01 00:41:33;;;;;;;;;;;;;;;7.45;90.82;98584.25;4919411;29;20342;-88
2022/09/01 00:44:03;;;;;;;;;;;;;;;7.51;90.69;98570.69;4918913;29;19938;-88
2022/09/01 00:46:32;;;;;;;;;;;;;;;7.54;90.46;98580.13;4937120;29;19986;-89
2022/09/01 00:49:16;;;;;;;;;;;;;;;7.62;90.37;98578.97;4930362;29;20139;-88
2022/09/01 00:51:46;;;;;;;;;;;;;;;7.73;89.78;98587.00;4942384;29;20029;-88
2022/09/01 00:54:17;;;;;;;;;;;;;;;7.77;89.33;98582.81;4941663;29;19966;-88
2022/09/01 00:56:44;;;;;;;;;;;;;;;7.77;89.08;98580.13;4930151;29;19931;-89
2022/09/01 00:59:12;;;;;;;;;;;;;;;7.81;89.10;98577.75;4946481;29;20001;-87
2022/09/01 01:01:39;;;;;;;;;;;;;;;7.85;88.81;98578.09;4947380;29;19958;-88
2022/09/01 01:04:13;;;;;;;;;;;;;;;7.86;88.58;98590.50;4930731;29;19935;-87
2022/09/01 01:06:48;;;;;;;;;;;;;;;7.88;88.60;98585.72;4939021;29;19937;-89
2022/09/01 01:09:16;;;;;;;;;;;;;;;7.93;88.47;98583.13;4938006;29;19977;-88
2022/09/01 01:11:46;;;;;;;;;;;;;;;7.97;88.17;98579.69;4909590;29;19930;-88
2022/09/01 01:14:14;;;;;;;;;;;;;;;7.96;88.11;98578.06;4922643;29;19930;-87
2022/09/01 01:16:43;;;;;;;;;;;;;;;7.99;88.15;98574.91;4923787;29;19931;-88
2022/09/01 01:23:00;;;;;;;;;;;;;;;7.99;88.06;98563.34;4939697;29;19980;-88
2022/09/01 01:24:51;;;;;;;;;;;;;;;8.08;87.58;98577.22;4910176;29;19954;-87
2022/09/01 01:27:20;;;;;;;;;;;;;;;8.07;87.48;98571.03;4922283;29;19931;-88
2022/09/01 01:29:52;;;;;;;;;;;;;;;8.03;87.38;98575.28;4905805;29;20325;-90
2022/09/01 01:32:19;;;;;;;;;;;;;;;8.02;87.09;98573.63;4922136;29;20464;-87
2022/09/01 01:34:46;;;;;;;;;;;;;;;8.04;87.20;98571.50;4938692;29;19996;-87
2022/09/01 01:37:17;;;;;;;;;;;;;;;8.05;86.97;98557.00;4933251;29;20389;-87
2022/09/01 01:39:45;;;;;;;;;;;;;;;8.04;86.57;98558.88;4903853;29;19931;-87
2022/09/01 01:42:12;;;;;;;;;;;;;;;8.08;86.33;98551.19;4918389;29;19938;-88
2022/09/01 01:44:39;;;;;;;;;;;;;;;8.13;85.63;98558.53;4924976;29;20291;-88
2022/09/01 01:47:11;;;;;;;;;;;;;;;8.16;84.79;98548.09;4925380;29;19986;-88
2022/09/01 01:49:42;;;;;;;;;;;;;;;8.19;84.42;98557.56;4924186;29;19931;-88
2022/09/01 01:52:13;;;;;;;;;;;;;;;8.21;84.25;98556.25;4919234;29;19935;-88
2022/09/01 01:54:41;;;;;;;;;;;;;;;8.24;83.75;98566.53;4916397;29;20274;-88
2022/09/01 01:57:09;;;;;;;;;;;;;;;8.22;83.59;98557.06;4915512;29;20286;-88
2022/09/01 01:59:39;;;;;;;;;;;;;;;8.24;83.55;98563.03;4899741;29;19981;-88
2022/09/01 02:02:07;;;;;;;;;;;;;;;8.24;83.18;98561.16;4914441;29;19931;-89
2022/09/01 02:04:34;;;;;;;;;;;;;;;8.21;83.21;98564.31;4915777;29;19932;-89
2022/09/01 02:07:11;;;;;;;;;;;;;;;8.25;82.70;98565.50;4900537;29;19935;-88
2022/09/01 02:09:39;;;;;;;;;;;;;;;8.24;82.71;98563.84;4915916;29;19938;-88
2022/09/01 02:12:07;;;;;;;;;;;;;;;8.28;82.22;98561.50;4915014;29;19942;-88
2022/09/01 02:14:34;;;;;;;;;;;;;;;8.27;81.96;98553.66;4903170;29;19955;-89
2022/09/01 02:17:02;;;;;;;;;;;;;;;8.28;81.59;98556.13;4922185;29;19931;-89
2022/09/01 02:19:29;;;;;;;;;;;;;;;8.32;81.21;98557.25;4920804;29;19931;-88
2022/09/01 02:21:59;;;;;;;;;;;;;;;8.35;81.11;98562.16;4905019;29;19935;-87
2022/09/01 02:24:30;;;;;;;;;;;;;;;8.31;81.28;98562.91;4922214;29;20366;-87
2022/09/01 02:26:59;;;;;;;;;;;;;;;8.32;81.49;98561.84;4919931;29;19936;-87
2022/09/01 02:29:29;;;;;;;;;;;;;;;8.32;81.36;98568.00;4918952;29;19931;-87
2022/09/01 02:32:00;;;;;;;;;;;;;;;8.36;81.31;98563.00;4918905;29;19935;-88
2022/09/01 02:34:27;;;;;;;;;;;;;;;8.34;81.23;98571.28;4917141;29;20319;-87
2022/09/01 02:36:55;;;;;;;;;;;;;;;8.33;81.29;98564.28;4915950;29;19931;-89
2022/09/01 02:39:25;;;;;;;;;;;;;;;8.16;81.48;98560.72;4928066;29;19931;-87
2022/09/01 02:41:52;;;;;;;;;;;;;;;7.93;82.65;98559.75;4907697;29;19931;-88
2022/09/01 02:44:26;;;;;;;;;;;;;;;7.82;83.56;98572.16;4924459;29;19930;-87
2022/09/01 02:46:55;;;;;;;;;;;;;;;7.71;83.98;98562.25;4924154;29;19931;-86
2022/09/01 02:49:27;;;;;;;;;;;;;;;7.76;84.44;98569.59;4906597;29;19938;-88
2022/09/01 02:51:56;;;;;;;;;;;;;;;7.70;84.66;98566.00;4905506;29;19930;-89
2022/09/01 02:54:23;;;;;;;;;;;;;;;7.79;84.54;98569.94;4921234;29;20402;-90
2022/09/01 02:56:53;;;;;;;;;;;;;;;7.84;84.33;98566.53;4938401;29;20400;-88
2022/09/01 02:59:23;;;;;;;;;;;;;;;7.89;83.98;98568.53;4905793;29;19953;-88
2022/09/01 03:01:51;;;;;;;;;;;;;;;7.95;83.59;98578.31;4921802;29;19937;-88
2022/09/01 03:04:18;;;;;;;;;;;;;;;7.98;83.19;98567.91;4921139;29;19954;-88
2022/09/01 03:06:46;;;;;;;;;;;;;;;8.01;82.77;98563.94;4938412;29;19934;-87
2022/09/01 03:09:15;;;;;;;;;;;;;;;8.02;82.34;98565.56;4921347;29;19960;-88
2022/09/01 03:11:51;;;;;;;;;;;;;;;8.02;81.09;98562.88;4938727;29;20407;-88
2022/09/01 03:14:33;;;;;;;;;;;;;;;8.09;80.64;98560.88;4893633;29;19930;-87
2022/09/01 03:17:00;;;;;;;;;;;;;;;8.15;79.63;98564.47;4920828;29;19994;-87
2022/09/01 03:19:31;;;;;;;;;;;;;;;8.05;79.30;98565.06;4863391;29;20314;-88
2022/09/01 03:21:58;;;;;;;;;;;;;;;7.99;78.28;98556.09;4878743;29;19942;-88
2022/09/01 03:24:29;;;;;;;;;;;;;;;7.96;77.93;98567.34;4881081;29;20349;-88
2022/09/01 03:26:57;;;;;;;;;;;;;;;7.95;77.52;98565.72;4864593;29;20333;-87
2022/09/01 03:29:26;;;;;;;;;;;;;;;7.90;77.37;98560.22;4848787;29;19931;-89
2022/09/01 03:31:53;;;;;;;;;;;;;;;7.95;77.08;98568.41;4849092;29;19935;-87
2022/09/01 03:34:22;;;;;;;;;;;;;;;8.08;76.25;98570.00;4885584;29;20458;-85
2022/09/01 03:36:53;;;;;;;;;;;;;;;8.12;75.99;98573.00;4878728;29;20099;-85
2022/09/01 03:39:28;;;;;;;;;;;;;;;8.13;75.58;98580.84;4856588;29;19936;-88
2022/09/01 03:41:57;;;;;;;;;;;;;;;8.18;75.69;98582.81;4845557;29;20027;-87
2022/09/01 03:44:24;;;;;;;;;;;;;;;8.24;75.40;98585.34;4846524;29;19939;-85
2022/09/01 03:46:51;;;;;;;;;;;;;;;8.27;74.94;98586.75;4851407;29;19986;-86
2022/09/01 03:49:23;;;;;;;;;;;;;;;8.19;75.13;98571.81;4866498;29;19939;-85
2022/09/01 03:51:56;;;;;;;;;;;;;;;8.23;75.45;98578.34;4897309;29;19931;-88
2022/09/01 03:54:29;;;;;;;;;;;;;;;8.31;75.06;98570.97;4896172;29;19932;-88
2022/09/01 03:56:58;;;;;;;;;;;;;;;8.38;75.01;98572.44;4565353;29;10000257;-88
2022/09/01 03:59:27;;;;;;;;;;;;;;;8.41;75.25;98571.19;4888064;29;19931;-89
2022/09/01 04:01:55;;;;;;;;;;;;;;;8.41;74.85;98577.38;4898691;29;19951;-89
2022/09/01 04:04:22;;;;;;;;;;;;;;;8.37;75.08;98572.69;4882603;29;19938;-88
2022/09/01 04:06:52;;;;;;;;;;;;;;;8.37;75.22;98570.00;4887588;29;20337;-90
2022/09/01 04:09:19;;;;;;;;;;;;;;;8.34;75.11;98565.91;4902977;29;19998;-86
2022/09/01 04:11:47;;;;;;;;;;;;;;;8.40;75.02;98572.22;4902100;29;19931;-85
2022/09/01 04:14:15;;;;;;;;;;;;;;;8.34;75.17;98573.97;4907415;29;19949;-86
2022/09/01 04:19:32;;;;;;;;;;;;;;;8.55;75.04;98580.56;4917840;29;19959;-86
2022/09/01 04:21:59;;;;;;;;;;;;;;;8.57;74.89;98570.38;4919067;29;19954;-86
2022/09/01 04:24:41;;;;;;;;;;;;;;;8.56;74.95;98574.16;4900171;29;19931;-88
2022/09/01 04:27:11;;;;;;;;;;;;;;;8.56;74.96;98579.53;4899836;29;19939;-87
2022/09/01 04:29:38;;;;;;;;;;;;;;;8.57;75.44;98586.53;4916048;29;19931;-87
2022/09/01 04:32:08;;;;;;;;;;;;;;;8.56;75.47;98576.84;4918372;29;19931;-87
2022/09/01 04:34:40;;;;;;;;;;;;;;;8.51;75.89;98571.38;4899245;29;20370;-89
2022/09/01 04:37:11;;;;;;;;;;;;;;;8.52;76.12;98578.38;4891803;29;20359;-86
2022/09/01 04:39:47;;;;;;;;;;;;;;;8.53;75.88;98571.09;4898464;29;19983;-86
2022/09/01 04:42:22;;;;;;;;;;;;;;;8.59;75.68;98575.53;4901472;29;19942;-87
2022/09/01 04:44:52;;;;;;;;;;;;;;;8.59;75.30;98576.34;4888849;29;20390;-87
2022/09/01 04:47:28;;;;;;;;;;;;;;;8.62;74.53;98586.63;4893295;29;19932;-86
2022/09/01 04:50:16;;;;;;;;;;;;;;;8.58;74.37;98585.50;4871180;29;19982;-87
2022/09/01 04:53:04;;;;;;;;;;;;;;;8.57;74.26;98580.34;4885976;29;19931;-87
2022/09/01 04:55:42;;;;;;;;;;;;;;;8.57;74.15;98580.34;4885198;29;20354;-88
2022/09/01 04:58:16;;;;;;;;;;;;;;;8.54;73.78;98584.31;4882911;29;19931;-87
2022/09/01 05:00:48;;;;;;;;;;;;;;;8.58;73.49;98579.28;4882534;29;19931;-87
2022/09/01 05:03:22;;;;;;;;;;;;;;;8.52;73.69;98575.69;4883072;29;19956;-86
2022/09/01 05:06:02;;;;;;;;;;;;;;;8.50;73.93;98585.84;4896336;29;19931;-87
2022/09/01 05:08:34;;;;;;;;;;;;;;;8.51;73.56;98582.13;4880991;29;19931;-88
2022/09/01 05:11:15;;;;;;;;;;;;;;;8.48;73.45;98593.34;4904604;29;19931;-88
2022/09/01 05:13:46;;;;;;;;;;;;;;;8.45;73.65;98594.63;4905544;29;19988;-88
2022/09/01 05:16:18;;;;;;;;;;;;;;;8.48;73.80;98587.97;4904371;29;19931;-87
2022/09/01 05:18:55;;;;;;;;;;;;;;;8.51;73.26;98606.34;4541537;29;10000560;-90
2022/09/01 05:21:28;;;;;;;;;;;;;;;8.54;73.15;98587.00;4880427;29;20349;-86
2022/09/01 05:23:59;;;;;;;;;;;;;;;8.62;72.74;98597.38;4888221;29;19942;-87
2022/09/01 05:26:30;;;;;;;;;;;;;;;8.77;72.47;98593.34;4848315;29;19931;-86
2022/09/01 05:28:59;;;;;;;;;;;;;;;8.98;71.37;98584.53;4873177;29;20022;-88
2022/09/01 05:31:36;;;;;;;;;;;;;;;9.14;69.42;98595.53;4887037;29;19957;-87
2022/09/01 05:34:03;;;;;;;;;;;;;;;9.19;68.46;98588.38;4896939;29;20046;-89
2022/09/01 05:36:32;;;;;;;;;;;;;;;9.19;67.49;98599.16;4879551;29;19942;-89
2022/09/01 05:39:00;;;;;;;;;;;;;;;9.18;67.29;98599.38;4887312;29;20050;-87
2022/09/01 05:41:28;;;;;;;;;;;;;;;9.14;66.72;98588.31;4901390;29;20568;-90
2022/09/01 05:43:59;;;;;;;;;;;;;;;9.17;65.45;98606.66;4899805;29;20030;-88
2022/09/01 05:46:28;;;;;;;;;;;;;;;9.23;65.06;98599.47;4886896;29;19985;-87
2022/09/01 05:48:57;;;;;;;;;;;;;;;9.29;64.29;98593.09;4901107;29;19935;-90
2022/09/01 05:51:25;;;;;;;;;;;;;;;9.24;64.07;98590.31;4920306;29;19987;-87
2022/09/01 05:54:10;;;;;;;;;;;;;;;9.34;62.99;98606.63;4901640;29;19931;-88
2022/09/01 05:56:39;;;;;;;;;;;;;;;9.34;61.79;98606.63;4920253;29;20496;-90
2022/09/01 05:59:12;;;;;;;;;;;;;;;9.31;61.78;98597.16;4902068;29;20045;-87
2022/09/01 06:02:01;;;;;;;;;;;;;;;9.35;60.85;98607.47;4895609;29;19930;-86
2022/09/01 06:04:29;;;;;;;;;;;;;;;9.35;61.12;98592.13;4914532;29;19931;-86
2022/09/01 06:07:01;;;;;;;;;;;;;;;9.39;60.84;98598.63;4923292;29;19939;-87
2022/09/01 06:09:47;;;;;;;;;;;;;;;9.39;61.18;98593.25;4916957;29;19930;-87
2022/09/01 06:12:20;;;;;;;;;;;;;;;9.37;61.15;98584.63;4935881;29;19934;-92
2022/09/01 06:14:48;;;;;;;;;;;;;;;9.39;61.18;98590.53;4931493;29;19975;-91
2022/09/01 06:17:18;;;;;;;;;;;;;;;9.41;61.20;98588.44;4928341;29;20433;-87
2022/09/01 06:19:45;;;;;;;;;;;;;;;9.31;61.70;98597.16;4926597;29;19962;-87
2022/09/01 06:22:13;;;;;;;;;;;;;;;9.17;62.53;98598.56;4906415;29;20287;-86
2022/09/01 06:24:40;;;;;;;;;;;;;;;9.18;62.99;98599.38;4932142;29;19969;-85
2022/09/01 06:27:11;;;;;;;;;;;;;;;9.19;63.36;98593.78;4916501;29;19986;-90
2022/09/01 06:29:39;;;;;;;;;;;;;;;9.37;63.52;98600.78;4889120;29;19931;-88
2022/09/01 06:32:11;;;;;;;;;;;;;;;9.44;63.46;98601.41;4923355;29;19938;-89
2022/09/01 06:34:41;;;;;;;;;;;;;;;9.46;63.81;98603.84;4907422;29;19952;-90
2022/09/01 06:37:09;;;;;;;;;;;;;;;9.66;63.35;98592.56;4916987;29;19974;-89
2022/09/01 06:39:37;;;;;;;;;;;;;;;9.71;63.43;98598.00;4922633;29;20055;-87
2022/09/01 06:42:05;;;;;;;;;;;;;;;9.65;63.35;98605.22;4920427;29;20440;-86
2022/09/01 06:44:44;;;;;;;;;;;;;;;9.55;63.81;98597.00;4908463;29;19963;-89
2022/09/01 06:47:14;;;;;;;;;;;;;;;9.45;64.01;98608.44;4924657;29;20027;-87
2022/09/01 06:49:41;;;;;;;;;;;;;;;9.54;64.37;98598.88;4909627;29;20366;-88
2022/09/01 06:52:14;;;;;;;;;;;;;;;9.61;64.00;98605.97;4906068;29;19953;-87
2022/09/01 06:54:42;;;;;;;;;;;;;;;9.62;63.86;98615.66;4911643;29;19978;-88
2022/09/01 06:57:10;;;;;;;;;;;;;;;9.65;63.74;98599.03;4901924;29;20021;-87
2022/09/01 06:59:58;;;;;;;;;;;;;;;9.70;62.95;98607.19;4922668;29;19931;-88
2022/09/01 07:02:25;;;;;;;;;;;;;;;9.62;63.45;98613.81;4899622;29;19958;-87
2022/09/01 07:05:17;;;;;;;;;;;;;;;9.63;63.06;98611.91;4925642;29;19938;-86
2022/09/01 07:08:09;;;;;;;;;;;;;;;9.66;62.61;98620.31;4919440;29;19937;-87
2022/09/01 07:11:05;;;;;;;;;;;;;;;9.71;62.45;98611.50;4914580;29;20046;-87
2022/09/01 07:13:54;;;;;;;;;;;;;;;9.87;62.20;98609.81;4918735;29;19938;-86
2022/09/01 07:16:42;;;;;;;;;;;;;;;10.01;61.19;98621.88;4916540;29;19931;-86
2022/09/01 07:19:34;;;;;;;;;;;;;;;9.97;61.63;98610.75;4905974;29;20030;-86
2022/09/01 07:22:18;;;;;;;;;;;;;;;9.98;61.57;98612.41;4904337;29;19939;-88
2022/09/01 07:25:02;;;;;;;;;;;;;;;10.11;60.33;98615.78;4914196;29;19931;-87
2022/09/01 07:27:49;;;;;;;;;;;;;;;10.17;58.77;98607.50;4914501;29;19930;-86
2022/09/01 07:30:21;;;;;;;;;;;;;;;10.11;57.92;98622.00;4938071;29;19978;-87
2022/09/01 07:33:10;;;;;;;;;;;;;;;10.03;57.25;98606.25;4946750;29;19919;-87
2022/09/01 07:35:58;;;;;;;;;;;;;;;10.05;57.17;98614.09;4919620;29;19969;-89
2022/09/01 07:38:50;;;;;;;;;;;;;;;10.20;56.79;98622.34;4919788;29;19931;-87
2022/09/01 07:41:38;;;;;;;;;;;;;;;10.25;56.66;98624.31;4908454;29;20323;-88
2022/09/01 07:45:05;;;;;;;;;;;;;;;10.38;56.23;98632.88;4933830;29;19938;-87
2022/09/01 07:48:02;;;;;;;;;;;;;;;10.49;55.95;98627.59;4911077;28;19934;-88
2022/09/01 07:50:43;;;;;;;;;;;;;;;10.73;55.72;98620.00;4931720;28;19990;-85
2022/09/01 07:53:32;;;;;;;;;;;;;;;10.75;54.77;98615.97;4928578;29;19966;-89
2022/09/01 07:56:00;;;;;;;;;;;;;;;10.53;54.43;98626.84;4935522;29;19986;-87
2022/09/01 07:58:32;;;;;;;;;;;;;;;10.44;54.55;98619.44;4918764;29;20619;-87
2022/09/01 08:01:07;;;;;;;;;;;;;;;10.40;54.71;98633.41;4915837;29;20025;-88
2022/09/01 08:03:36;;;;;;;;;;;;;;;10.38;54.53;98614.00;4917602;29;19986;-86
2022/09/01 08:06:05;;;;;;;;;;;;;;;10.45;54.69;98618.38;4910776;29;19978;-87
2022/09/01 08:08:33;;;;;;;;;;;;;;;10.63;54.67;98615.31;4915954;29;20334;-87
2022/09/01 08:11:02;;;;;;;;;;;;;;;10.70;54.22;98615.13;4917682;29;19970;-88
2022/09/01 08:13:32;;;;;;;;;;;;;;;10.77;53.95;98618.44;4843991;29;19931;-87
2022/09/01 08:16:07;;;;;;;;;;;;;;;10.94;54.13;98639.91;4876421;29;20035;-86
2022/09/01 08:18:43;;;;;;;;;;;;;;;11.05;53.23;98626.25;4881275;29;19931;-85
2022/09/01 08:21:50;;;;;;;;;;;;;;;10.96;52.37;98625.09;4891744;29;20022;-87
2022/09/01 08:24:35;;;;;;;;;;;;;;;10.95;52.51;98619.94;4885037;29;20000;-85
2022/09/01 08:27:03;;;;;;;;;;;;;;;10.98;52.69;98616.72;4885313;29;20410;-85
2022/09/01 08:29:30;;;;;;;;;;;;;;;10.80;52.51;98617.91;4888928;29;19939;-84
2022/09/01 08:31:58;;;;;;;;;;;;;;;10.60;53.22;98634.72;4877370;29;19967;-87
2022/09/01 08:34:25;;;;;;;;;;;;;;;10.48;53.75;98616.00;4886149;29;19946;-87
2022/09/01 08:36:56;;;;;;;;;;;;;;;10.54;53.95;98619.56;4883332;29;19941;-87
2022/09/01 08:39:23;;;;;;;;;;;;;;;10.73;53.82;98633.50;4914380;29;19966;-89
2022/09/01 08:41:50;;;;;;;;;;;;;;;10.76;53.45;98627.59;4861594;29;19988;-88
2022/09/01 08:44:29;;;;;;;;;;;;;;;10.76;53.46;98623.03;4897147;29;19935;-90
2022/09/01 08:46:58;;;;;;;;;;;;;;;10.81;53.47;98619.53;4901373;29;20026;-89
2022/09/01 08:49:46;;;;;;;;;;;;;;;10.90;53.19;98628.00;4927233;29;20371;-87
2022/09/01 08:52:57;;;;;;;;;;;;;;;11.03;52.72;98628.38;4928876;29;19946;-89
2022/09/01 08:55:41;;;;;;;;;;;;;;;10.97;52.65;98625.91;4906388;29;19930;-88
2022/09/01 08:58:11;;;;;;;;;;;;;;;10.72;53.15;98621.91;4948115;29;20015;-88
2022/09/01 09:00:57;;;;;;;;;;;;;;;10.51;53.75;98637.06;4904347;29;19935;-87
2022/09/01 09:03:36;;;;;;;;;;;;;;;10.60;54.20;98634.72;4911232;29;19931;-87
2022/09/01 09:06:07;;;;;;;;;;;;;;;10.63;54.02;98636.91;4903640;29;19931;-88
2022/09/01 09:08:40;;;;;;;;;;;;;;;10.46;54.51;98646.97;4928953;29;19931;-88
2022/09/01 09:11:07;;;;;;;;;;;;;;;10.36;55.03;98644.97;4924326;29;19931;-87
2022/09/01 09:13:38;;;;;;;;;;;;;;;10.30;55.04;98635.19;4911285;29;19958;-88
2022/09/01 09:16:08;;;;;;;;;;;;;;;10.27;54.87;98647.25;4901759;29;19938;-88
2022/09/01 09:18:38;;;;;;;;;;;;;;;10.31;55.26;98653.00;4933434;29;19937;-86
2022/09/01 09:21:35;;;;;;;;;;;;;;;10.40;55.13;98646.91;4935745;29;19978;-90
2022/09/01 09:24:24;;;;;;;;;;;;;;;10.44;55.48;98657.22;4878310;29;19999;-89
2022/09/01 09:26:55;;;;;;;;;;;;;;;10.40;55.02;98665.78;4845574;29;20486;-88
2022/09/01 09:29:22;;;;;;;;;;;;;;;10.17;55.60;98655.22;4880933;29;20704;-88
2022/09/01 09:31:53;;;;;;;;;;;;;;;10.09;56.16;98658.34;4883226;29;19939;-87
2022/09/01 09:34:31;;;;;;;;;;;;;;;10.15;56.28;98666.28;4881060;29;19936;-85
2022/09/01 09:37:19;;;;;;;;;;;;;;;10.24;55.94;98663.94;4887029;29;20821;-91
2022/09/01 09:40:08;;;;;;;;;;;;;;;10.18;56.36;98670.34;4877482;29;19936;-88
2022/09/01 09:42:53;;;;;;;;;;;;;;;10.19;56.49;98666.59;4867722;29;19936;-90
2022/09/01 09:45:20;;;;;;;;;;;;;;;10.46;56.26;98679.34;4875184;29;19936;-86
2022/09/01 09:47:47;;;;;;;;;;;;;;;10.40;55.95;98673.06;4855369;29;20457;-88
2022/09/01 09:50:18;;;;;;;;;;;;;;;10.34;56.48;98674.91;4852493;29;19932;-88
2022/09/01 09:52:46;;;;;;;;;;;;;;;10.32;56.71;98679.72;4869150;29;20342;-85
2022/09/01 09:55:23;;;;;;;;;;;;;;;10.32;56.35;98677.03;4881202;29;19931;-89
2022/09/01 09:57:52;;;;;;;;;;;;;;;10.35;55.96;98673.81;4868246;29;19936;-88
2022/09/01 10:00:20;;;;;;;;;;;;;;;10.45;55.89;98677.72;4897265;29;19978;-89
2022/09/01 10:02:55;;;;;;;;;;;;;;;10.48;55.27;98666.41;4919763;29;19954;-89
2022/09/01 10:05:35;;;;;;;;;;;;;;;10.56;55.12;98684.88;4915772;29;19931;-90
2022/09/01 10:08:09;;;;;;;;;;;;;;;10.72;54.75;98685.88;4911354;29;20011;-91
2022/09/01 10:10:43;;;;;;;;;;;;;;;10.76;54.71;98692.38;4924482;29;19938;-90
2022/09/01 10:13:18;;;;;;;;;;;;;;;10.80;54.38;98685.41;4922569;29;19935;-88
2022/09/01 10:15:49;;;;;;;;;;;;;;;10.89;53.07;98685.75;4917627;29;19931;-88
2022/09/01 10:18:20;;;;;;;;;;;;;;;10.89;52.81;98693.84;4923127;29;19942;-88
2022/09/01 10:21:09;;;;;;;;;;;;;;;10.93;53.31;98690.41;4894053;29;19911;-89
2022/09/01 10:23:37;;;;;;;;;;;;;;;10.98;52.56;98697.75;4920301;29;19931;-88
2022/09/01 10:26:13;;;;;;;;;;;;;;;10.99;52.49;98691.28;4931028;29;20409;-89
2022/09/01 10:29:01;;;;;;;;;;;;;;;10.97;51.26;98698.81;4906456;29;19939;-89
2022/09/01 10:31:28;;;;;;;;;;;;;;;10.97;51.78;98701.53;4919356;29;19931;-88
2022/09/01 10:33:59;;;;;;;;;;;;;;;11.04;51.30;98694.03;4922050;29;19932;-89
2022/09/01 10:36:26;;;;;;;;;;;;;;;11.16;51.18;98691.97;4911679;29;19931;-90
2022/09/01 10:38:53;;;;;;;;;;;;;;;11.15;50.35;98701.16;4914113;29;20424;-88
2022/09/01 10:41:49;;;;;;;;;;;;;;;11.04;50.57;98702.13;4916742;29;19931;-88
2022/09/01 10:44:29;;;;;;;;;;;;;;;11.10;50.69;98701.09;4929317;29;19938;-89
2022/09/01 10:46:57;;;;;;;;;;;;;;;11.10;51.15;98687.59;4926140;29;20379;-90
2022/09/01 10:49:27;;;;;;;;;;;;;;;11.37;50.90;98713.75;4938603;29;20033;-90
2022/09/01 10:51:55;;;;;;;;;;;;;;;11.48;50.20;98702.78;4942160;29;20278;-89
2022/09/01 10:54:37;;;;;;;;;;;;;;;11.39;50.05;98685.41;4937412;29;19963;-89
2022/09/01 10:57:15;;;;;;;;;;;;;;;11.30;50.37;98689.69;4929648;29;19986;-90
2022/09/01 10:59:43;;;;;;;;;;;;;;;11.28;50.44;98684.53;4935299;29;19915;-90
2022/09/01 11:02:22;;;;;;;;;;;;;;;11.44;50.44;98692.75;4944226;29;19931;-90
2022/09/01 11:04:52;;;;;;;;;;;;;;;11.58;50.28;98685.03;4928030;29;19931;-90
2022/09/01 11:07:40;;;;;;;;;;;;;;;11.59;49.96;98683.97;4917750;29;19931;-89
2022/09/01 11:10:52;;;;;;;;;;;;;;;11.68;49.76;98691.34;4895958;29;20422;-90
2022/09/01 11:13:28;;;;;;;;;;;;;;;11.56;50.13;98673.66;4905836;29;19931;-90
2022/09/01 11:15:55;;;;;;;;;;;;;;;11.55;50.07;98685.56;4904770;29;19939;-90
2022/09/01 11:18:28;;;;;;;;;;;;;;;11.73;49.87;98684.34;4893566;29;19916;-90
2022/09/01 11:21:12;;;;;;;;;;;;;;;11.95;49.55;98695.03;4910154;29;19932;-89
2022/09/01 11:23:39;;;;;;;;;;;;;;;12.08;49.08;98686.50;4902091;29;20038;-89
2022/09/01 11:26:30;;;;;;;;;;;;;;;12.33;48.72;98685.78;4904935;29;19931;-89
2022/09/01 11:28:57;;;;;;;;;;;;;;;12.27;48.88;98684.13;4910754;29;19931;-88
2022/09/01 11:31:49;;;;;;;;;;;;;;;12.25;49.49;98697.91;4890330;29;19931;-88
2022/09/01 11:34:22;;;;;;;;;;;;;;;12.04;49.41;98686.19;4891460;29;19931;-88
2022/09/01 11:36:49;;;;;;;;;;;;;;;11.70;49.84;98691.91;4907106;29;19932;-89
2022/09/01 11:39:38;;;;;;;;;;;;;;;11.68;50.11;98695.94;4907414;29;19931;-89
2022/09/01 11:42:20;;;;;;;;;;;;;;;11.78;50.07;98693.28;4857184;29;19980;-89
2022/09/01 11:45:11;;;;;;;;;;;;;;;12.03;49.63;98689.16;4871825;29;19997;-90
2022/09/01 11:47:49;;;;;;;;;;;;;;;12.17;49.63;98687.59;4870912;29;19936;-89
2022/09/01 11:50:18;;;;;;;;;;;;;;;12.23;49.86;98678.47;4870076;29;19932;-90
2022/09/01 11:52:55;;;;;;;;;;;;;;;12.34;49.88;98673.91;4871035;29;20033;-91
2022/09/01 11:55:36;;;;;;;;;;;;;;;12.11;48.87;98675.94;4870490;29;19996;-90
2022/09/01 11:58:04;;;;;;;;;;;;;;;11.88;50.06;98670.97;4868090;29;19987;-92
2022/09/01 12:00:37;;;;;;;;;;;;;;;11.80;50.32;98671.38;4884483;29;19931;-89
2022/09/01 12:03:05;;;;;;;;;;;;;;;11.84;50.44;98675.22;4884902;29;19959;-89
2022/09/01 12:05:34;;;;;;;;;;;;;;;11.94;50.52;98694.25;4882412;29;19938;-90
2022/09/01 12:08:02;;;;;;;;;;;;;;;13.20;48.69;98669.78;4826644;29;19943;-89
2022/09/01 12:10:33;;;;;;;;;;;;;;;13.76;47.15;98671.72;4884005;29;19931;-90
2022/09/01 12:13:00;;;;;;;;;;;;;;;13.48;47.58;98682.03;4883394;29;19931;-89
2022/09/01 12:15:29;;;;;;;;;;;;;;;13.30;47.46;98658.19;4885358;29;20029;-91
2022/09/01 12:18:21;;;;;;;;;;;;;;;12.73;48.40;98665.38;4861571;29;20030;-90
2022/09/01 12:20:57;;;;;;;;;;;;;;;12.38;48.91;98660.63;4936943;29;19985;-91
2022/09/01 12:23:24;;;;;;;;;;;;;;;12.31;48.80;98674.44;4948682;29;19935;-89
2022/09/01 12:25:55;;;;;;;;;;;;;;;12.33;48.67;98666.84;4932743;29;19931;-88
2022/09/01 12:28:32;;;;;;;;;;;;;;;12.62;47.84;98658.31;4935368;29;19935;-90
2022/09/01 12:31:01;;;;;;;;;;;;;;;12.97;47.32;98655.69;4950050;29;19978;-89
2022/09/01 12:33:33;;;;;;;;;;;;;;;13.88;46.34;98658.69;4947520;29;19931;-89
2022/09/01 12:36:19;;;;;;;;;;;;;;;15.86;41.31;98662.44;4929865;29;19938;-90
2022/09/01 12:38:47;;;;;;;;;;;;;;;14.69;43.23;98663.03;4926966;29;19937;-91
2022/09/01 12:41:33;;;;;;;;;;;;;;;14.10;43.73;98663.75;4909896;29;20298;-90
2022/09/01 12:44:20;;;;;;;;;;;;;;;13.53;45.30;98638.66;4945140;29;19930;-91
2022/09/01 12:46:48;;;;;;;;;;;;;;;13.21;46.07;98647.81;4914485;29;20002;-90
2022/09/01 12:49:16;;;;;;;;;;;;;;;13.05;46.23;98650.81;4929557;29;19934;-89
2022/09/01 12:51:47;;;;;;;;;;;;;;;13.23;46.39;98653.78;4929309;29;19937;-90
2022/09/01 12:54:14;;;;;;;;;;;;;;;13.53;46.14;98640.56;4940103;29;20343;-91
2022/09/01 12:56:45;;;;;;;;;;;;;;;13.81;45.83;98663.56;4915748;29;19986;-88
2022/09/01 12:59:23;;;;;;;;;;;;;;;16.44;41.10;98649.53;4923417;29;20417;-90
2022/09/01 13:02:21;;;;;;;;;;;;;;;16.79;40.54;98663.84;4920830;29;20459;-89
2022/09/01 13:05:20;;;;;;;;;;;;;;;18.62;37.52;98664.50;4901144;29;19937;-89
2022/09/01 13:07:56;;;;;;;;;;;;;;;17.83;37.67;98636.59;4921719;29;20305;-89
2022/09/01 13:10:24;;;;;;;;;;;;;;;18.29;37.73;98638.41;4919264;29;19931;-90
2022/09/01 13:13:11;;;;;;;;;;;;;;;18.33;38.29;98644.88;4935273;29;19935;-89
2022/09/01 13:15:40;;;;;;;;;;;;;;;19.36;36.08;98660.66;4923367;29;19961;-89
2022/09/01 13:18:08;;;;;;;;;;;;;;;19.26;36.53;98647.25;4935647;29;20021;-90
2022/09/01 13:20:35;;;;;;;;;;;;;;;18.65;37.49;98634.94;4921794;29;19931;-91
2022/09/01 13:23:02;;;;;;;;;;;;;;;17.21;39.12;98653.94;4918073;29;20272;-90
2022/09/01 13:25:29;;;;;;;;;;;;;;;18.91;37.28;98630.53;4883146;29;19954;-90
2022/09/01 13:28:13;;;;;;;;;;;;;;;18.24;37.59;98636.59;4873183;29;20478;-90
2022/09/01 13:30:40;;;;;;;;;;;;;;;15.76;42.36;98636.97;4905994;29;19932;-90
2022/09/01 13:33:11;;;;;;;;;;;;;;;15.04;44.72;98649.50;4907718;29;19981;-88